Decoded Metar for LYVR (VRSAC in SERBIA) (IATA:N/A) | Meteo·Mobile Aviation Weather
aviador You're here:

LYVR Decoded Metar

VRSAC in SERBIA
Report Time2020-02-22 09:00:00
UTC Time2020-02-22 09:19:43
Flight Rules vfr VFR
WindVRB at 02 kt
Visibility9999 m
Phenomena:N/A
Clouds:N/A
Expected CloudBase > 1,200 ft AGL from Temp-Dew spread
CeilingNone
Temp04°C (ISA -10)
Dew Point01°C (81% RH)
AAT1.5°C
QNH1032 hPa
Density Alt-1,539 ft
Elevation279 ft
Report Wrong Elevation
Raw Report
METAR LYVR 220900Z VRB02KT CAVOK 04/01 Q1032 NOSIG=

Extra information for LYVR:More info

Metar Taf Metar & Taf Last 4 Metars F.Rules Stats Wind Profile Meteogram Temp Stats Airport Information Weather charts Add Link Nearby VenuesMetar ALERT Operation Metar Decoded Social comments